createdAt,value
2023-04-17T00:02:32.692Z,17.33
2023-04-17T00:05:34.240Z,14.43
2023-04-17T00:08:31.148Z,13.13
2023-04-17T00:11:21.948Z,15.23
2023-04-17T00:14:14.695Z,14.90
2023-04-17T00:17:08.561Z,13.83
2023-04-17T00:20:01.180Z,13.87
2023-04-17T00:22:53.281Z,13.77
2023-04-17T00:25:44.750Z,14.57
2023-04-17T00:28:36.252Z,13.33
2023-04-17T00:31:41.843Z,13.27
2023-04-17T00:34:33.689Z,14.27
2023-04-17T00:37:23.362Z,16.33
2023-04-17T00:40:18.396Z,15.00
2023-04-17T00:43:10.866Z,18.23
2023-04-17T00:46:03.862Z,13.77
2023-04-17T00:48:56.113Z,15.63
2023-04-17T00:51:47.449Z,14.50
2023-04-17T00:54:40.811Z,14.83
2023-04-17T00:57:36.491Z,14.13
2023-04-17T01:00:30.749Z,19.33
2023-04-17T01:03:20.985Z,16.80
2023-04-17T01:06:12.130Z,19.80
2023-04-17T01:09:03.728Z,15.90
2023-04-17T01:11:56.162Z,14.93
2023-04-17T01:14:51.834Z,14.13
2023-04-17T01:17:41.357Z,13.53
2023-04-17T01:20:35.364Z,17.43
2023-04-17T01:23:26.009Z,14.77
2023-04-17T01:26:21.457Z,14.17
2023-04-17T01:29:18.924Z,25.60
2023-04-17T01:32:15.607Z,17.00
2023-04-17T01:35:07.966Z,13.77
2023-04-17T01:37:58.959Z,15.07
2023-04-17T01:40:51.840Z,14.80
2023-04-17T01:43:48.488Z,14.20
2023-04-17T01:46:43.800Z,16.53
2023-04-17T01:49:38.688Z,17.07
2023-04-17T01:52:34.913Z,19.97
2023-04-17T01:55:25.760Z,16.53
2023-04-17T01:58:17.460Z,17.23
2023-04-17T02:01:14.785Z,20.23
2023-04-17T02:04:11.816Z,19.07
2023-04-17T02:07:02.367Z,18.50
2023-04-17T02:09:53.118Z,17.10
2023-04-17T02:12:33.865Z,17.80
2023-04-17T02:18:04.966Z,18.40
2023-04-17T02:20:55.173Z,19.40
2023-04-17T02:23:44.787Z,22.20
2023-04-17T02:26:38.127Z,20.93
2023-04-17T02:29:28.086Z,17.87
2023-04-17T02:32:19.154Z,23.43
2023-04-17T02:35:13.490Z,21.10
2023-04-17T02:38:03.151Z,23.27
2023-04-17T02:40:52.987Z,22.10
2023-04-17T02:43:43.981Z,21.30
2023-04-17T02:46:33.958Z,23.77
2023-04-17T02:49:23.529Z,21.63
2023-04-17T02:52:15.586Z,19.23
2023-04-17T02:55:06.201Z,18.97
2023-04-17T02:57:56.206Z,23.83
2023-04-17T03:00:45.725Z,33.20
2023-04-17T03:03:39.759Z,21.10
2023-04-17T03:06:31.661Z,22.30
2023-04-17T03:09:24.414Z,19.60
2023-04-17T03:12:14.602Z,24.17
2023-04-17T03:15:08.979Z,20.07
2023-04-17T03:17:59.080Z,21.87
2023-04-17T03:20:49.977Z,19.03
2023-04-17T03:23:42.541Z,20.70
2023-04-17T03:26:35.202Z,23.37
2023-04-17T03:29:27.880Z,26.83
2023-04-17T03:32:17.850Z,16.07
2023-04-17T03:35:08.265Z,21.17
2023-04-17T03:37:58.027Z,21.53
2023-04-17T03:40:48.056Z,20.60
2023-04-17T03:43:39.329Z,23.00
2023-04-17T03:46:28.983Z,19.83
2023-04-17T03:49:26.142Z,19.90
2023-04-17T03:52:16.124Z,21.70
2023-04-17T03:55:06.395Z,19.03
2023-04-17T03:57:56.144Z,21.80
2023-04-17T04:00:50.507Z,21.03
2023-04-17T04:03:40.194Z,24.23
2023-04-17T04:06:30.542Z,23.53
2023-04-17T04:09:20.435Z,23.00
2023-04-17T04:12:10.349Z,22.43
2023-04-17T04:14:59.914Z,26.23
2023-04-17T04:17:52.513Z,22.97
2023-04-17T04:20:42.136Z,22.23
2023-04-17T04:23:32.442Z,21.30
2023-04-17T04:26:22.151Z,22.10
2023-04-17T04:29:14.389Z,21.73
2023-04-17T04:32:04.743Z,22.30
2023-04-17T04:35:02.394Z,21.43
2023-04-17T04:37:55.715Z,22.13
2023-04-17T04:40:52.742Z,24.10
2023-04-17T04:43:42.962Z,22.77
2023-04-17T04:46:32.357Z,21.63
2023-04-17T04:49:24.427Z,17.90
2023-04-17T04:52:16.849Z,21.33
2023-04-17T04:55:07.317Z,19.23
2023-04-17T04:57:58.028Z,19.00
2023-04-17T05:00:48.100Z,17.53
2023-04-17T05:03:37.801Z,19.03
2023-04-17T05:06:28.921Z,18.03
2023-04-17T05:09:20.131Z,17.20
2023-04-17T05:12:09.821Z,20.57
2023-04-17T05:14:59.767Z,19.70
2023-04-17T05:17:50.698Z,18.53
2023-04-17T05:20:40.309Z,19.03
2023-04-17T05:23:31.006Z,16.27
2023-04-17T05:26:23.607Z,15.83
2023-04-17T05:29:13.784Z,20.57
2023-04-17T05:32:05.057Z,17.63
2023-04-17T05:35:04.293Z,16.53
2023-04-17T05:37:54.341Z,18.27
2023-04-17T05:40:43.890Z,15.83
2023-04-17T05:43:36.210Z,16.53
2023-04-17T05:46:29.749Z,16.53
2023-04-17T05:49:19.907Z,18.83
2023-04-17T05:52:12.088Z,19.00
2023-04-17T05:55:02.120Z,17.30
2023-04-17T05:57:56.232Z,14.63
2023-04-17T06:00:49.983Z,15.50
2023-04-17T06:03:41.119Z,19.67
2023-04-17T06:06:31.963Z,16.00
2023-04-17T06:09:24.565Z,16.77
2023-04-17T06:12:17.079Z,15.70
2023-04-17T06:15:09.630Z,14.17
2023-04-17T06:18:00.659Z,12.50
2023-04-17T06:20:51.581Z,15.10
2023-04-17T06:23:41.032Z,16.03
2023-04-17T06:26:37.913Z,15.07
2023-04-17T06:29:28.292Z,11.63
2023-04-17T06:32:18.252Z,13.43
2023-04-17T06:35:12.810Z,12.57
2023-04-17T06:38:11.772Z,14.17
2023-04-17T06:41:02.180Z,13.90
2023-04-17T06:44:01.872Z,13.43
2023-04-17T06:46:56.549Z,12.80
2023-04-17T06:49:46.586Z,12.23
2023-04-17T06:52:39.933Z,12.30
2023-04-17T06:55:31.722Z,12.93
2023-04-17T06:58:21.470Z,12.03
2023-04-17T07:01:17.852Z,17.47
2023-04-17T07:04:09.822Z,11.43
2023-04-17T07:06:59.471Z,13.17
2023-04-17T07:09:53.708Z,10.03
2023-04-17T07:12:43.921Z,11.83
2023-04-17T07:15:33.417Z,13.80
2023-04-17T07:18:25.050Z,13.00
2023-04-17T07:21:15.388Z,12.67
2023-04-17T07:24:15.505Z,11.97
2023-04-17T07:27:12.190Z,10.90
2023-04-17T07:30:03.558Z,10.93
2023-04-17T07:32:53.598Z,11.33
2023-04-17T07:35:46.658Z,10.80
2023-04-17T07:38:42.004Z,9.90
2023-04-17T07:41:31.875Z,12.27
2023-04-17T07:44:32.380Z,13.53
2023-04-17T07:47:30.186Z,12.63
2023-04-17T07:50:22.310Z,9.57
2023-04-17T07:53:11.889Z,12.07
2023-04-17T07:56:01.763Z,11.63
2023-04-17T07:59:01.144Z,10.60
2023-04-17T08:01:54.040Z,12.27
2023-04-17T08:04:45.488Z,12.10
2023-04-17T08:07:35.728Z,11.50
2023-04-17T08:10:25.408Z,15.47
2023-04-17T08:13:16.002Z,10.63
2023-04-17T08:16:08.903Z,10.07
2023-04-17T08:19:01.837Z,8.90
2023-04-17T08:21:55.223Z,11.70
2023-04-17T08:24:46.509Z,10.63
2023-04-17T08:27:44.708Z,9.10
2023-04-17T08:30:37.976Z,11.57
2023-04-17T08:33:31.111Z,9.50
2023-04-17T08:36:24.691Z,11.37
2023-04-17T08:39:17.129Z,9.10
2023-04-17T08:42:18.740Z,10.57
2023-04-17T08:45:12.386Z,8.80
2023-04-17T08:48:03.302Z,11.23
2023-04-17T08:50:56.043Z,10.10
2023-04-17T08:53:49.825Z,10.43
2023-04-17T08:56:41.064Z,11.20
2023-04-17T08:59:30.527Z,9.90
2023-04-17T09:02:21.429Z,9.03
2023-04-17T09:05:22.427Z,10.50
2023-04-17T09:08:16.889Z,11.40
2023-04-17T09:11:20.445Z,12.47
2023-04-17T09:14:37.760Z,13.03
2023-04-17T09:17:39.970Z,11.03
2023-04-17T09:20:31.131Z,10.80
2023-04-17T09:23:23.693Z,11.73
2023-04-17T09:26:17.867Z,12.27
2023-04-17T09:29:10.538Z,13.67
2023-04-17T09:32:17.892Z,11.57
2023-04-17T09:35:12.337Z,10.43
2023-04-17T09:38:02.589Z,10.60
2023-04-17T09:40:53.357Z,11.60
2023-04-17T09:43:47.915Z,12.37
2023-04-17T09:46:46.625Z,11.80
2023-04-17T09:49:41.226Z,11.77
2023-04-17T09:52:32.926Z,10.97
2023-04-17T09:55:25.113Z,11.63
2023-04-17T09:58:15.683Z,11.73
2023-04-17T10:01:09.887Z,22.77
2023-04-17T10:04:04.092Z,16.27
2023-04-17T10:06:54.161Z,10.17
2023-04-17T10:09:47.146Z,18.03
2023-04-17T10:12:43.778Z,13.53
2023-04-17T10:15:34.938Z,11.37
2023-04-17T10:18:28.340Z,12.13
2023-04-17T10:21:27.606Z,11.03
2023-04-17T10:24:38.868Z,9.30
2023-04-17T10:27:49.646Z,10.77
2023-04-17T10:30:56.263Z,11.17
2023-04-17T10:34:04.371Z,9.23
2023-04-17T10:36:58.161Z,10.60
2023-04-17T10:40:10.779Z,12.03
2023-04-17T10:43:15.248Z,8.87
2023-04-17T10:46:07.364Z,9.30
2023-04-17T10:49:07.071Z,10.47
2023-04-17T10:51:57.723Z,8.77
2023-04-17T10:55:10.947Z,7.87
2023-04-17T10:58:05.944Z,12.17
2023-04-17T11:00:55.456Z,9.83
2023-04-17T11:03:47.839Z,8.87
2023-04-17T11:06:46.981Z,10.37
2023-04-17T11:09:42.852Z,8.87
2023-04-17T11:12:34.598Z,15.53
2023-04-17T11:15:30.908Z,8.13
2023-04-17T11:18:24.051Z,8.83
2023-04-17T11:21:15.035Z,8.40
2023-04-17T11:24:09.893Z,8.00
2023-04-17T11:27:02.681Z,9.27
2023-04-17T11:29:53.190Z,10.20
2023-04-17T11:32:46.734Z,7.77
2023-04-17T11:35:38.042Z,7.17
2023-04-17T11:38:31.664Z,7.50
2023-04-17T11:41:25.210Z,7.47
2023-04-17T11:44:16.993Z,7.33
2023-04-17T11:47:07.128Z,7.63
2023-04-17T11:49:57.846Z,12.97
2023-04-17T11:52:51.074Z,8.57
2023-04-17T11:55:47.711Z,7.30
2023-04-17T11:58:49.355Z,7.60
2023-04-17T12:01:55.014Z,6.83
2023-04-17T12:04:45.270Z,6.97
2023-04-17T12:07:35.647Z,6.33
2023-04-17T12:10:26.550Z,6.60
2023-04-17T12:13:22.781Z,6.43
2023-04-17T12:16:14.721Z,6.13
2023-04-17T12:19:04.992Z,6.07
2023-04-17T12:21:57.871Z,7.30
2023-04-17T12:24:50.651Z,6.80
2023-04-17T12:27:40.366Z,7.47
2023-04-17T12:33:50.223Z,8.27
2023-04-17T12:36:43.804Z,6.00
2023-04-17T12:39:35.373Z,6.17
2023-04-17T12:42:25.886Z,7.07
2023-04-17T12:45:18.093Z,8.80
2023-04-17T12:48:10.944Z,6.07
2023-04-17T12:51:17.624Z,7.17
2023-04-17T12:54:17.034Z,8.03
2023-04-17T12:57:07.571Z,9.73
2023-04-17T12:59:57.786Z,10.33
2023-04-17T13:02:49.073Z,9.20
2023-04-17T13:05:39.304Z,7.37
2023-04-17T13:08:48.821Z,8.33
2023-04-17T13:11:38.690Z,7.47
2023-04-17T13:14:28.890Z,6.67
2023-04-17T13:17:19.877Z,7.50
2023-04-17T13:20:10.937Z,6.27
2023-04-17T13:23:00.844Z,7.93
2023-04-17T13:25:52.392Z,6.30
2023-04-17T13:28:44.191Z,6.60
2023-04-17T13:31:43.005Z,6.70
2023-04-17T13:34:34.115Z,5.70
2023-04-17T13:37:37.422Z,5.97
2023-04-17T13:40:26.965Z,7.37
2023-04-17T13:43:18.554Z,6.13
2023-04-17T13:46:09.605Z,6.30
2023-04-17T13:49:01.190Z,7.43
2023-04-17T13:51:52.832Z,5.77
2023-04-17T13:54:51.760Z,6.80
2023-04-17T13:57:43.255Z,6.87
2023-04-17T14:00:34.659Z,5.77
2023-04-17T14:03:28.168Z,7.50
2023-04-17T14:06:19.413Z,7.53
2023-04-17T14:09:12.593Z,6.73
2023-04-17T14:12:03.243Z,7.33
2023-04-17T14:14:53.298Z,9.00
2023-04-17T14:17:45.822Z,8.80
2023-04-17T14:20:39.069Z,10.70
2023-04-17T14:23:31.000Z,11.20
2023-04-17T14:26:20.651Z,10.53
2023-04-17T14:29:11.229Z,6.90
2023-04-17T14:32:03.276Z,8.87
2023-04-17T14:34:58.884Z,9.03
2023-04-17T14:37:48.931Z,7.20
2023-04-17T14:40:38.785Z,7.77
2023-04-17T14:43:29.406Z,7.73
2023-04-17T14:46:22.604Z,6.90
2023-04-17T14:49:13.888Z,7.57
2023-04-17T14:52:06.298Z,9.00
2023-04-17T14:54:56.933Z,8.83
2023-04-17T14:57:47.646Z,10.30
2023-04-17T15:00:39.214Z,9.23
2023-04-17T15:03:29.393Z,9.60
2023-04-17T15:06:19.721Z,10.23
2023-04-17T15:09:11.413Z,9.90
2023-04-17T15:12:01.223Z,9.60
2023-04-17T15:14:51.819Z,10.03
2023-04-17T15:17:43.421Z,9.57
2023-04-17T15:20:42.373Z,9.27
2023-04-17T15:23:31.966Z,8.33
2023-04-17T15:26:23.660Z,8.37
2023-04-17T15:29:14.273Z,8.47
2023-04-17T15:32:04.401Z,8.77
2023-04-17T15:34:53.952Z,10.13
2023-04-17T15:37:45.407Z,11.83
2023-04-17T15:40:34.989Z,8.80
2023-04-17T15:43:26.244Z,10.37
2023-04-17T15:46:16.514Z,9.97
2023-04-17T15:49:09.193Z,9.03
2023-04-17T15:51:59.920Z,11.27
2023-04-17T15:54:50.050Z,16.30
2023-04-17T15:57:43.642Z,10.37
2023-04-17T16:00:35.280Z,11.97
2023-04-17T16:03:26.737Z,9.97
2023-04-17T16:06:18.205Z,11.23
2023-04-17T16:09:08.148Z,11.27
2023-04-17T16:11:58.111Z,9.70
2023-04-17T16:14:50.103Z,8.73
2023-04-17T16:17:43.885Z,10.00
2023-04-17T16:20:36.631Z,8.93
2023-04-17T16:23:26.183Z,11.30
2023-04-17T16:26:17.334Z,10.03
2023-04-17T16:29:07.379Z,13.70
2023-04-17T16:31:58.482Z,11.83
2023-04-17T16:34:50.987Z,10.03
2023-04-17T16:37:42.268Z,13.10
2023-04-17T16:40:32.660Z,12.20
2023-04-17T16:43:24.208Z,11.97
2023-04-17T16:46:23.886Z,15.07
2023-04-17T16:49:23.466Z,12.87
2023-04-17T16:52:15.689Z,14.93
2023-04-17T16:55:08.170Z,13.23
2023-04-17T16:58:00.875Z,14.87
2023-04-17T17:00:50.519Z,19.57
2023-04-17T17:03:43.822Z,17.40
2023-04-17T17:06:39.132Z,16.07
2023-04-17T17:09:33.704Z,13.47
2023-04-17T17:12:25.660Z,14.97
2023-04-17T17:15:15.241Z,15.10
2023-04-17T17:18:05.111Z,15.27
2023-04-17T17:20:56.947Z,16.50
2023-04-17T17:23:46.863Z,14.53
2023-04-17T17:26:38.593Z,13.80
2023-04-17T17:29:31.099Z,13.73
2023-04-17T17:32:20.973Z,16.63
2023-04-17T17:35:11.668Z,13.47
2023-04-17T17:38:01.712Z,15.33
2023-04-17T17:40:54.681Z,17.63
2023-04-17T17:43:46.201Z,19.93
2023-04-17T17:46:41.970Z,28.23
2023-04-17T17:49:32.184Z,26.17
2023-04-17T17:52:24.404Z,20.17
2023-04-17T17:55:21.386Z,20.13
2023-04-17T17:58:12.307Z,20.10
2023-04-17T18:01:04.454Z,17.67
2023-04-17T18:03:55.085Z,16.93
2023-04-17T18:06:49.725Z,66.00
2023-04-17T18:09:41.960Z,81.10
2023-04-17T18:12:33.961Z,135.17
2023-04-17T18:15:24.343Z,118.47
2023-04-17T18:18:18.707Z,122.37
2023-04-17T18:21:12.794Z,135.57
2023-04-17T18:24:04.721Z,193.37
2023-04-17T18:26:55.841Z,128.10
2023-04-17T18:29:52.235Z,74.83
2023-04-17T18:32:51.884Z,56.00
2023-04-17T18:35:46.575Z,41.13
2023-04-17T18:38:38.691Z,32.67
2023-04-17T18:41:48.602Z,43.23
2023-04-17T18:44:51.397Z,43.80
2023-04-17T18:47:46.780Z,66.97
2023-04-17T18:50:43.640Z,72.50
2023-04-17T18:53:38.307Z,56.53
2023-04-17T18:56:38.046Z,55.73
2023-04-17T18:59:41.435Z,39.73
2023-04-17T19:02:37.515Z,47.13
2023-04-17T19:05:30.508Z,37.27
2023-04-17T19:08:23.226Z,37.27
2023-04-17T19:11:24.473Z,31.30
2023-04-17T19:14:16.617Z,31.50
2023-04-17T19:17:08.172Z,28.20
2023-04-17T19:20:03.550Z,29.63
2023-04-17T19:22:57.666Z,30.17
2023-04-17T19:25:55.721Z,27.27
2023-04-17T19:29:02.870Z,28.23
2023-04-17T19:31:57.021Z,26.63
2023-04-17T19:34:51.764Z,25.43
2023-04-17T19:38:03.996Z,28.60
2023-04-17T19:41:19.189Z,31.33
2023-04-17T19:44:20.704Z,32.27
2023-04-17T19:47:15.739Z,36.30
2023-04-17T19:50:12.167Z,33.97
2023-04-17T19:53:03.504Z,35.37
2023-04-17T19:55:59.472Z,35.07
2023-04-17T19:58:52.422Z,31.57
2023-04-17T20:01:47.651Z,29.63
2023-04-17T20:04:46.629Z,28.47
2023-04-17T20:07:37.978Z,30.77
2023-04-17T20:10:29.201Z,30.70
2023-04-17T20:13:20.142Z,27.30
2023-04-17T20:16:20.528Z,30.60
2023-04-17T20:19:17.686Z,31.13
2023-04-17T20:22:09.562Z,28.40
2023-04-17T20:25:00.321Z,28.87
2023-04-17T20:27:54.269Z,30.07
2023-04-17T20:30:45.912Z,27.23
2023-04-17T20:36:44.378Z,31.37
2023-04-17T20:39:39.341Z,26.23
2023-04-17T20:42:29.326Z,26.20
2023-04-17T20:45:20.003Z,27.53
2023-04-17T20:48:12.116Z,26.73
2023-04-17T20:51:06.770Z,32.27
2023-04-17T20:54:00.941Z,30.93
2023-04-17T20:56:54.506Z,32.03
2023-04-17T20:59:52.159Z,24.60
2023-04-17T21:02:45.454Z,24.33
2023-04-17T21:05:39.607Z,20.73
2023-04-17T21:08:30.486Z,24.77
2023-04-17T21:11:31.641Z,23.20
2023-04-17T21:14:21.660Z,25.70
2023-04-17T21:17:21.831Z,26.73
2023-04-17T21:20:18.618Z,24.57
2023-04-17T21:23:11.986Z,28.57
2023-04-17T21:26:03.607Z,27.27
2023-04-17T21:28:58.977Z,30.00
2023-04-17T21:31:52.276Z,29.20
2023-04-17T21:34:43.749Z,33.40
2023-04-17T21:37:35.874Z,46.50
2023-04-17T21:40:29.137Z,51.80
2023-04-17T21:43:23.185Z,48.80
2023-04-17T21:46:17.830Z,62.27
2023-04-17T21:49:08.818Z,53.43
2023-04-17T21:52:00.008Z,36.83
2023-04-17T21:54:50.071Z,34.93
2023-04-17T21:57:43.581Z,24.90
2023-04-17T22:00:36.328Z,25.50
2023-04-17T22:03:30.392Z,28.53
2023-04-17T22:06:24.611Z,26.80
2023-04-17T22:09:17.454Z,29.73
2023-04-17T22:12:16.354Z,28.97
2023-04-17T22:15:07.857Z,30.13
2023-04-17T22:17:59.356Z,28.87
2023-04-17T22:21:28.097Z,30.37
2023-04-17T22:25:12.458Z,30.67
2023-04-17T22:28:43.909Z,27.13
2023-04-17T22:31:54.063Z,27.07
2023-04-17T22:35:03.115Z,27.43
2023-04-17T22:38:09.815Z,31.67
2023-04-17T22:41:37.004Z,28.20
2023-04-17T22:45:20.986Z,28.23
2023-04-17T22:48:49.130Z,27.30
2023-04-17T22:52:14.792Z,25.73
2023-04-17T22:56:07.179Z,27.30
2023-04-17T22:59:34.206Z,26.87
2023-04-17T23:02:59.489Z,30.87
2023-04-17T23:06:15.060Z,25.23
2023-04-17T23:09:11.776Z,30.17
2023-04-17T23:12:02.760Z,30.73
2023-04-17T23:14:56.009Z,29.10
2023-04-17T23:17:47.102Z,28.90
2023-04-17T23:20:40.200Z,28.40
2023-04-17T23:23:49.042Z,27.33
2023-04-17T23:26:41.238Z,26.93
2023-04-17T23:29:33.542Z,32.07
2023-04-17T23:32:31.397Z,30.97
2023-04-17T23:35:23.523Z,28.30
2023-04-17T23:38:14.483Z,29.83
2023-04-17T23:41:07.936Z,25.97
2023-04-17T23:44:00.028Z,31.77
2023-04-17T23:46:50.273Z,28.47
2023-04-17T23:49:48.507Z,25.97
2023-04-17T23:52:38.993Z,27.10
2023-04-17T23:55:28.710Z,22.70
2023-04-17T23:58:22.557Z,21.90
